createdAt,value
2018-08-20T00:00:51.383Z,99.90
2018-08-20T00:03:19.673Z,99.90
2018-08-20T00:05:53.346Z,99.90
2018-08-20T00:08:22.717Z,99.90
2018-08-20T00:10:55.204Z,99.90
2018-08-20T00:13:23.886Z,99.90
2018-08-20T00:15:52.383Z,99.90
2018-08-20T00:18:25.963Z,99.90
2018-08-20T00:20:54.293Z,99.90
2018-08-20T00:23:23.077Z,99.90
2018-08-20T00:25:51.443Z,99.90
2018-08-20T00:28:19.697Z,99.90
2018-08-20T00:30:47.980Z,99.90
2018-08-20T00:33:16.245Z,99.90
2018-08-20T00:35:44.876Z,99.90
2018-08-20T00:38:14.867Z,99.90
2018-08-20T00:40:43.693Z,99.90
2018-08-20T00:43:12.011Z,99.90
2018-08-20T00:45:40.371Z,99.90
2018-08-20T00:48:09.054Z,99.90
2018-08-20T00:50:37.327Z,99.90
2018-08-20T00:53:05.719Z,99.90
2018-08-20T00:55:33.989Z,99.90
2018-08-20T00:58:02.268Z,99.90
2018-08-20T01:00:30.558Z,99.90
2018-08-20T01:02:58.820Z,99.90
2018-08-20T01:05:27.107Z,99.90
2018-08-20T01:07:55.409Z,99.90
2018-08-20T01:10:23.710Z,99.90
2018-08-20T01:12:52.000Z,99.90
2018-08-20T01:15:20.272Z,99.90
2018-08-20T01:17:48.539Z,99.90
2018-08-20T01:20:16.817Z,99.90
2018-08-20T01:22:45.205Z,99.90
2018-08-20T01:25:13.561Z,99.90
2018-08-20T01:27:46.075Z,99.90
2018-08-20T01:30:14.375Z,99.90
2018-08-20T01:32:42.635Z,99.90
2018-08-20T01:35:22.247Z,99.90
2018-08-20T01:37:50.503Z,99.90
2018-08-20T01:40:18.805Z,99.90
2018-08-20T01:42:47.071Z,99.90
2018-08-20T01:45:15.359Z,99.90
2018-08-20T01:47:43.651Z,99.90
2018-08-20T01:50:11.911Z,99.90
2018-08-20T01:52:40.227Z,99.90
2018-08-20T01:55:08.493Z,99.90
2018-08-20T01:57:36.783Z,99.90
2018-08-20T02:00:05.735Z,99.90
2018-08-20T02:02:34.014Z,99.90
2018-08-20T02:05:02.302Z,99.90
2018-08-20T02:07:30.580Z,99.90
2018-08-20T02:09:58.889Z,99.90
2018-08-20T02:12:27.163Z,99.90
2018-08-20T02:14:55.443Z,99.90
2018-08-20T02:17:23.756Z,99.90
2018-08-20T02:19:52.033Z,99.90
2018-08-20T02:22:20.297Z,99.90
2018-08-20T02:24:48.693Z,99.90
2018-08-20T02:27:17.008Z,99.90
2018-08-20T02:29:45.287Z,99.90
2018-08-20T02:32:13.553Z,99.90
2018-08-20T02:34:41.808Z,99.90
2018-08-20T02:37:10.102Z,99.90
2018-08-20T02:39:38.388Z,99.90
2018-08-20T02:42:06.674Z,99.90
2018-08-20T02:44:34.932Z,99.90
2018-08-20T02:47:03.309Z,99.90
2018-08-20T02:49:31.587Z,99.90
2018-08-20T02:51:59.880Z,99.90
2018-08-20T02:54:28.198Z,99.90
2018-08-20T02:56:56.454Z,99.90
2018-08-20T02:59:24.769Z,99.90
2018-08-20T03:01:53.080Z,99.90
2018-08-20T03:04:21.362Z,99.90
2018-08-20T03:06:49.644Z,99.90
2018-08-20T03:09:17.927Z,99.90
2018-08-20T03:11:46.227Z,99.90
2018-08-20T03:14:14.488Z,99.90
2018-08-20T03:16:42.768Z,99.90
2018-08-20T03:19:11.028Z,99.90
2018-08-20T03:21:39.316Z,99.90
2018-08-20T03:24:07.622Z,99.90
2018-08-20T03:26:35.900Z,99.90
2018-08-20T03:29:04.221Z,99.90
2018-08-20T03:31:32.505Z,99.90
2018-08-20T03:34:00.795Z,99.90
2018-08-20T03:36:29.184Z,99.90
2018-08-20T03:38:57.452Z,99.90
2018-08-20T03:41:25.718Z,99.90
2018-08-20T03:43:53.985Z,99.90
2018-08-20T03:46:22.254Z,99.90
2018-08-20T03:48:50.520Z,99.90
2018-08-20T03:51:18.801Z,99.90
2018-08-20T03:53:47.057Z,99.90
2018-08-20T03:56:15.340Z,99.90
2018-08-20T03:58:43.625Z,99.90
2018-08-20T04:01:11.894Z,99.90
2018-08-20T04:03:40.159Z,99.90
2018-08-20T04:06:08.525Z,99.90
2018-08-20T04:08:36.756Z,99.90
2018-08-20T04:11:05.040Z,99.90
2018-08-20T04:13:33.288Z,99.90
2018-08-20T04:16:01.564Z,99.90
2018-08-20T04:18:29.930Z,99.90
2018-08-20T04:20:58.212Z,99.90
2018-08-20T04:23:26.472Z,99.90
2018-08-20T04:25:54.760Z,99.90
2018-08-20T04:28:23.069Z,99.90
2018-08-20T04:30:51.342Z,99.90
2018-08-20T04:33:19.615Z,99.90
2018-08-20T04:35:47.883Z,99.90
2018-08-20T04:38:16.204Z,99.90
2018-08-20T04:40:44.516Z,99.90
2018-08-20T04:43:12.805Z,99.90
2018-08-20T04:45:42.176Z,99.90
2018-08-20T04:48:10.470Z,99.90
2018-08-20T04:50:38.837Z,99.90
2018-08-20T04:53:07.112Z,99.90
2018-08-20T04:55:35.396Z,99.90
2018-08-20T04:58:03.726Z,99.90
2018-08-20T05:00:32.020Z,99.90
2018-08-20T05:03:00.317Z,99.90
2018-08-20T05:05:28.601Z,99.90
2018-08-20T05:07:56.892Z,99.90
2018-08-20T05:10:25.221Z,99.90
2018-08-20T05:12:53.502Z,99.90
2018-08-20T05:15:21.790Z,99.90
2018-08-20T05:17:50.074Z,99.90
2018-08-20T05:20:18.422Z,99.90
2018-08-20T05:22:46.694Z,99.90
2018-08-20T05:25:14.979Z,99.90
2018-08-20T05:27:43.258Z,99.90
2018-08-20T05:30:11.562Z,99.90
2018-08-20T05:32:39.855Z,99.90
2018-08-20T05:35:08.193Z,99.90
2018-08-20T05:37:36.706Z,99.90
2018-08-20T05:40:05.102Z,99.90
2018-08-20T05:42:33.405Z,99.90
2018-08-20T05:45:01.696Z,99.90
2018-08-20T05:47:29.958Z,99.90
2018-08-20T05:49:58.224Z,99.90
2018-08-20T05:52:26.565Z,99.90
2018-08-20T05:54:54.840Z,99.90
2018-08-20T05:57:23.148Z,99.90
2018-08-20T05:59:51.470Z,99.90
2018-08-20T06:02:19.842Z,99.90
2018-08-20T06:04:48.110Z,99.90
2018-08-20T06:07:16.529Z,99.90
2018-08-20T06:09:44.817Z,99.90
2018-08-20T06:12:13.114Z,99.90
2018-08-20T06:14:41.459Z,99.90
2018-08-20T06:17:09.736Z,99.90
2018-08-20T06:19:38.029Z,99.90
2018-08-20T06:22:06.359Z,99.90
2018-08-20T06:24:34.641Z,99.90
2018-08-20T06:27:02.993Z,99.90
2018-08-20T06:29:31.305Z,99.90
2018-08-20T06:31:59.577Z,99.90
2018-08-20T06:34:27.862Z,99.90
2018-08-20T06:36:56.269Z,99.90
2018-08-20T06:39:24.588Z,99.90
2018-08-20T06:41:52.865Z,99.90
2018-08-20T06:44:21.129Z,99.90
2018-08-20T06:46:49.407Z,99.90
2018-08-20T06:49:17.711Z,99.90
2018-08-20T06:51:45.967Z,99.90
2018-08-20T06:54:14.247Z,99.90
2018-08-20T06:56:42.531Z,99.90
2018-08-20T06:59:10.816Z,99.90
2018-08-20T07:01:39.123Z,99.90
2018-08-20T07:04:07.664Z,99.90
2018-08-20T07:06:35.964Z,99.90
2018-08-20T07:09:04.961Z,99.90
2018-08-20T07:11:33.255Z,99.90
2018-08-20T07:14:01.535Z,99.90
2018-08-20T07:16:29.858Z,99.90
2018-08-20T07:18:58.159Z,99.90
2018-08-20T07:21:26.454Z,99.90
2018-08-20T07:23:54.838Z,99.90
2018-08-20T07:26:23.071Z,99.90
2018-08-20T07:28:51.359Z,99.90
2018-08-20T07:31:19.687Z,99.90
2018-08-20T07:33:47.987Z,99.90
2018-08-20T07:36:16.322Z,99.90
2018-08-20T07:38:44.643Z,99.90
2018-08-20T07:41:12.933Z,99.90
2018-08-20T07:43:41.265Z,99.90
2018-08-20T07:46:09.662Z,99.90
2018-08-20T07:48:37.947Z,99.90
2018-08-20T07:51:06.586Z,99.90
2018-08-20T07:53:34.876Z,99.90
2018-08-20T07:56:03.209Z,99.90
2018-08-20T07:58:31.510Z,99.90
2018-08-20T08:00:59.783Z,99.90
2018-08-20T08:03:30.789Z,99.90
2018-08-20T08:06:01.225Z,99.90
2018-08-20T08:08:29.543Z,99.90
2018-08-20T08:10:57.814Z,99.90
2018-08-20T08:13:26.119Z,99.90
2018-08-20T08:15:54.432Z,99.90
2018-08-20T08:18:22.837Z,99.90
2018-08-20T08:20:51.146Z,99.90
2018-08-20T08:23:19.430Z,99.90
2018-08-20T08:25:47.730Z,99.90
2018-08-20T08:28:16.068Z,99.90
2018-08-20T08:30:44.418Z,99.90
2018-08-20T08:33:12.706Z,99.90
2018-08-20T08:35:41.017Z,99.90
2018-08-20T08:38:09.345Z,99.90
2018-08-20T08:40:37.589Z,99.90
2018-08-20T08:43:05.915Z,99.90
2018-08-20T08:45:34.200Z,99.90
2018-08-20T08:48:02.451Z,99.90
2018-08-20T08:50:30.750Z,99.90
2018-08-20T08:52:59.069Z,99.90
2018-08-20T08:55:27.384Z,99.90
2018-08-20T08:57:55.757Z,99.90
2018-08-20T09:00:24.051Z,99.90
2018-08-20T09:02:52.322Z,99.90
2018-08-20T09:05:20.586Z,99.90
2018-08-20T09:07:48.880Z,99.90
2018-08-20T09:10:17.158Z,99.90
2018-08-20T09:12:45.438Z,99.90
2018-08-20T09:15:15.384Z,99.90
2018-08-20T09:17:44.064Z,99.90
2018-08-20T09:20:14.328Z,99.90
2018-08-20T09:22:42.705Z,99.90
2018-08-20T09:25:12.092Z,99.90
2018-08-20T09:27:41.000Z,99.90
2018-08-20T09:30:14.949Z,99.90
2018-08-20T09:32:43.772Z,99.90
2018-08-20T09:35:12.068Z,99.90
2018-08-20T09:37:40.640Z,99.90
2018-08-20T09:40:10.187Z,99.90
2018-08-20T09:42:39.485Z,99.90
2018-08-20T09:45:07.822Z,99.90
2018-08-20T09:47:37.366Z,99.90
2018-08-20T09:50:06.819Z,99.90
2018-08-20T09:52:35.124Z,99.90
2018-08-20T09:55:03.468Z,99.90
2018-08-20T09:57:31.760Z,99.90
2018-08-20T10:00:00.144Z,99.90
2018-08-20T10:02:28.556Z,99.90
2018-08-20T10:04:57.276Z,99.90
2018-08-20T10:07:25.589Z,99.90
2018-08-20T10:09:53.880Z,99.90
2018-08-20T10:12:22.152Z,99.90
2018-08-20T10:14:50.449Z,99.90
2018-08-20T10:17:18.776Z,99.90
2018-08-20T10:19:47.035Z,99.90
2018-08-20T10:22:15.320Z,99.90
2018-08-20T10:24:43.636Z,99.90
2018-08-20T10:27:11.887Z,99.90
2018-08-20T10:29:40.171Z,99.90
2018-08-20T10:32:08.618Z,99.90
2018-08-20T10:34:36.776Z,99.90
2018-08-20T10:37:05.103Z,99.90
2018-08-20T10:39:33.391Z,99.90
2018-08-20T10:42:01.932Z,99.90
2018-08-20T10:44:30.205Z,99.90
2018-08-20T10:46:58.502Z,99.90
2018-08-20T10:49:26.790Z,99.90
2018-08-20T10:51:55.060Z,99.90
2018-08-20T10:54:23.373Z,99.90
2018-08-20T10:56:51.646Z,99.90
2018-08-20T10:59:20.011Z,99.90
2018-08-20T11:01:48.285Z,99.90
2018-08-20T11:04:16.577Z,99.90
2018-08-20T11:06:44.827Z,99.90
2018-08-20T11:09:13.178Z,99.90
2018-08-20T11:11:41.444Z,99.90
2018-08-20T11:14:09.731Z,99.90
2018-08-20T11:16:37.995Z,99.90
2018-08-20T11:19:06.337Z,99.90
2018-08-20T11:21:34.651Z,99.90
2018-08-20T11:24:02.941Z,99.90
2018-08-20T11:26:31.321Z,99.90
2018-08-20T11:28:59.591Z,99.90
2018-08-20T11:31:27.917Z,99.90
2018-08-20T11:33:56.201Z,99.90
2018-08-20T11:36:24.480Z,99.90
2018-08-20T11:38:52.755Z,99.90
2018-08-20T11:41:21.028Z,99.90
2018-08-20T11:43:49.316Z,99.90
2018-08-20T11:46:17.683Z,99.90
2018-08-20T11:48:46.038Z,99.40
2018-08-20T11:51:14.337Z,99.40
2018-08-20T11:53:42.935Z,99.50
2018-08-20T11:56:11.237Z,99.10
2018-08-20T11:58:39.519Z,99.40
2018-08-20T12:01:07.787Z,99.30
2018-08-20T12:03:36.098Z,98.80
2018-08-20T12:06:04.450Z,98.40
2018-08-20T12:08:32.745Z,97.60
2018-08-20T12:11:01.025Z,97.10
2018-08-20T12:13:29.346Z,96.70
2018-08-20T12:15:57.613Z,96.00
2018-08-20T12:18:25.892Z,95.70
2018-08-20T12:20:54.195Z,95.50
2018-08-20T12:23:22.489Z,95.30
2018-08-20T12:25:50.777Z,95.20
2018-08-20T12:28:19.110Z,94.40
2018-08-20T12:30:47.379Z,93.90
2018-08-20T12:33:15.645Z,93.40
2018-08-20T12:35:43.932Z,93.30
2018-08-20T12:38:12.205Z,92.70
2018-08-20T12:40:40.489Z,92.50
2018-08-20T12:43:08.762Z,93.00
2018-08-20T12:45:37.059Z,93.30
2018-08-20T12:48:05.359Z,94.20
2018-08-20T12:50:33.641Z,92.50
2018-08-20T12:53:01.998Z,86.70
2018-08-20T12:55:30.212Z,83.60
2018-08-20T12:57:58.497Z,83.40
2018-08-20T13:00:26.824Z,86.20
2018-08-20T13:02:55.070Z,88.00
2018-08-20T13:05:23.347Z,87.90
2018-08-20T13:07:51.629Z,87.30
2018-08-20T13:10:19.976Z,86.90
2018-08-20T13:12:48.248Z,87.00
2018-08-20T13:15:16.568Z,85.80
2018-08-20T13:17:44.851Z,83.90
2018-08-20T13:20:13.119Z,83.20
2018-08-20T13:22:41.386Z,82.70
2018-08-20T13:25:10.003Z,80.80
2018-08-20T13:27:38.375Z,81.60
2018-08-20T13:30:07.904Z,81.90
2018-08-20T13:32:36.188Z,82.50
2018-08-20T13:35:04.978Z,82.30
2018-08-20T13:37:33.456Z,82.30
2018-08-20T13:40:01.746Z,82.30
2018-08-20T13:42:30.535Z,83.00
2018-08-20T13:44:58.832Z,83.30
2018-08-20T13:47:27.129Z,84.00
2018-08-20T13:50:00.038Z,85.50
2018-08-20T13:52:28.768Z,86.00
2018-08-20T13:54:57.070Z,86.00
2018-08-20T13:57:25.916Z,86.10
2018-08-20T13:59:54.192Z,86.30
2018-08-20T14:02:22.488Z,86.40
2018-08-20T14:04:50.768Z,86.00
2018-08-20T14:07:19.029Z,85.90
2018-08-20T14:09:47.292Z,86.30
2018-08-20T14:12:15.568Z,86.00
2018-08-20T14:14:43.876Z,86.50
2018-08-20T14:17:12.217Z,86.60
2018-08-20T14:19:40.572Z,86.00
2018-08-20T14:22:08.894Z,86.30
2018-08-20T14:24:37.182Z,87.00
2018-08-20T14:27:05.901Z,87.70
2018-08-20T14:29:34.184Z,88.70
2018-08-20T14:32:02.523Z,89.30
2018-08-20T14:34:30.795Z,89.40
2018-08-20T14:36:59.164Z,89.70
2018-08-20T14:39:27.350Z,88.00
2018-08-20T14:41:55.655Z,87.70
2018-08-20T14:44:23.936Z,88.50
2018-08-20T14:46:52.226Z,89.40
2018-08-20T14:49:20.514Z,89.20
2018-08-20T14:51:48.794Z,87.60
2018-08-20T14:54:17.063Z,87.30
2018-08-20T14:56:45.576Z,88.50
2018-08-20T14:59:13.879Z,89.50
2018-08-20T15:01:42.164Z,89.40
2018-08-20T15:04:10.484Z,88.90
2018-08-20T15:06:54.428Z,89.20
2018-08-20T15:09:23.024Z,88.20
2018-08-20T15:11:51.202Z,87.70
2018-08-20T15:14:19.713Z,87.90
2018-08-20T15:16:48.080Z,87.70
2018-08-20T15:19:16.574Z,87.80
2018-08-20T15:21:45.150Z,87.50
2018-08-20T15:24:13.641Z,86.70
2018-08-20T15:26:41.944Z,86.60
2018-08-20T15:29:10.212Z,87.50
2018-08-20T15:31:38.509Z,88.20
2018-08-20T15:34:06.826Z,88.20
2018-08-20T15:36:35.208Z,89.10
2018-08-20T15:39:03.568Z,89.20
2018-08-20T15:41:31.853Z,88.90
2018-08-20T15:44:00.111Z,89.10
2018-08-20T15:46:28.405Z,89.30
2018-08-20T15:48:56.721Z,89.60
2018-08-20T15:51:25.008Z,89.10
2018-08-20T15:53:53.302Z,88.90
2018-08-20T15:56:21.631Z,88.50
2018-08-20T15:58:49.928Z,88.70
2018-08-20T16:01:18.257Z,88.20
2018-08-20T16:03:46.674Z,88.40
2018-08-20T16:06:15.040Z,87.70
2018-08-20T16:08:43.317Z,87.10
2018-08-20T16:11:11.635Z,86.70
2018-08-20T16:13:39.926Z,86.80
2018-08-20T16:16:08.193Z,87.80
2018-08-20T16:18:36.489Z,89.00
2018-08-20T16:21:04.774Z,89.10
2018-08-20T16:23:33.039Z,89.50
2018-08-20T16:26:01.316Z,89.80
2018-08-20T16:28:29.614Z,89.90
2018-08-20T16:30:57.908Z,90.10
2018-08-20T16:33:26.197Z,90.30
2018-08-20T16:35:54.472Z,90.30
2018-08-20T16:38:22.789Z,90.50
2018-08-20T16:40:51.120Z,90.80
2018-08-20T16:43:19.473Z,91.00
2018-08-20T16:45:47.780Z,91.40
2018-08-20T16:48:16.080Z,91.40
2018-08-20T16:50:44.378Z,91.50
2018-08-20T16:53:12.702Z,91.80
2018-08-20T16:55:41.028Z,92.10
2018-08-20T16:58:09.327Z,92.30
2018-08-20T17:00:37.638Z,92.40
2018-08-20T17:03:10.072Z,92.50
2018-08-20T17:05:43.713Z,92.60
2018-08-20T17:08:13.095Z,92.90
2018-08-20T17:10:41.388Z,93.00
2018-08-20T17:13:09.676Z,93.10
2018-08-20T17:15:38.093Z,93.00
2018-08-20T17:18:06.517Z,93.10
2018-08-20T17:20:34.789Z,93.30
2018-08-20T17:23:14.441Z,93.40
2018-08-20T17:25:42.909Z,93.20
2018-08-20T17:28:11.197Z,93.20
2018-08-20T17:30:39.475Z,93.30
2018-08-20T17:33:07.924Z,93.30
2018-08-20T17:35:39.135Z,93.20
2018-08-20T17:38:07.432Z,93.10
2018-08-20T17:40:37.349Z,93.10
2018-08-20T17:43:06.103Z,92.90
2018-08-20T17:45:34.461Z,92.80
2018-08-20T17:48:02.843Z,92.70
2018-08-20T17:50:46.831Z,92.70
2018-08-20T17:53:15.099Z,92.60
2018-08-20T17:55:43.421Z,92.80
2018-08-20T17:58:11.809Z,93.00
2018-08-20T18:00:45.572Z,93.20
2018-08-20T18:03:19.943Z,93.50
2018-08-20T18:05:55.725Z,93.50
2018-08-20T18:08:25.257Z,93.80
2018-08-20T18:10:53.577Z,94.00
2018-08-20T18:13:34.727Z,94.30
2018-08-20T18:16:05.068Z,94.60
2018-08-20T18:18:33.692Z,94.90
2018-08-20T18:21:02.025Z,95.20
2018-08-20T18:23:31.977Z,95.40
2018-08-20T18:26:00.330Z,95.80
2018-08-20T18:28:28.911Z,96.30
2018-08-20T18:31:05.341Z,96.60
2018-08-20T18:33:33.973Z,96.90
2018-08-20T18:36:06.009Z,97.30
2018-08-20T18:38:38.671Z,97.70
2018-08-20T18:41:07.348Z,98.10
2018-08-20T18:43:35.760Z,98.50
2018-08-20T18:46:05.537Z,98.80
2018-08-20T18:48:39.233Z,99.30
2018-08-20T18:51:09.067Z,99.60
2018-08-20T18:53:37.419Z,99.90
2018-08-20T18:56:11.281Z,99.90
2018-08-20T18:58:39.713Z,99.90
2018-08-20T19:01:08.327Z,99.90
2018-08-20T19:03:52.203Z,99.90
2018-08-20T19:06:20.537Z,99.90
2018-08-20T19:08:48.895Z,99.90
2018-08-20T19:11:17.255Z,99.90
2018-08-20T19:13:45.581Z,99.90
2018-08-20T19:16:30.171Z,99.90
2018-08-20T19:18:58.541Z,99.90
2018-08-20T19:21:29.695Z,99.90
2018-08-20T19:23:59.933Z,99.90
2018-08-20T19:26:29.657Z,99.90
2018-08-20T19:28:58.401Z,99.90
2018-08-20T19:31:26.770Z,99.90
2018-08-20T19:33:55.807Z,99.90
2018-08-20T19:36:24.137Z,99.90
2018-08-20T19:38:53.498Z,99.90
2018-08-20T19:41:21.838Z,99.90
2018-08-20T19:43:51.268Z,99.90
2018-08-20T19:46:28.819Z,99.90
2018-08-20T19:49:01.536Z,99.90
2018-08-20T19:51:32.026Z,99.90
2018-08-20T19:54:00.436Z,99.90
2018-08-20T19:56:29.771Z,99.90
2018-08-20T19:58:58.373Z,99.90
2018-08-20T20:01:27.462Z,99.90
2018-08-20T20:03:55.939Z,99.90
2018-08-20T20:06:24.406Z,99.90
2018-08-20T20:08:52.804Z,99.90
2018-08-20T20:11:28.584Z,99.90
2018-08-20T20:14:00.430Z,99.90
2018-08-20T20:16:39.022Z,99.90
2018-08-20T20:19:07.664Z,99.90
2018-08-20T20:21:36.315Z,99.90
2018-08-20T20:24:05.038Z,99.90
2018-08-20T20:26:34.742Z,99.90
2018-08-20T20:29:03.774Z,99.90
2018-08-20T20:31:32.361Z,99.90
2018-08-20T20:34:00.946Z,99.90
2018-08-20T20:36:30.757Z,99.90
2018-08-20T20:38:59.354Z,99.90
2018-08-20T20:41:27.969Z,99.90
2018-08-20T20:43:56.699Z,99.90
2018-08-20T20:46:25.203Z,99.90
2018-08-20T20:48:53.701Z,99.90
2018-08-20T20:51:22.322Z,99.90
2018-08-20T20:53:50.845Z,99.90
2018-08-20T20:56:19.421Z,99.90
2018-08-20T20:58:48.024Z,99.90
2018-08-20T21:01:16.687Z,99.90
2018-08-20T21:03:45.257Z,99.90
2018-08-20T21:06:13.844Z,99.90
2018-08-20T21:08:46.816Z,99.90
2018-08-20T21:11:16.144Z,99.90
2018-08-20T21:13:45.031Z,99.90
2018-08-20T21:16:14.890Z,99.90
2018-08-20T21:18:48.401Z,99.90
2018-08-20T21:21:17.987Z,99.90
2018-08-20T21:23:46.373Z,99.90
2018-08-20T21:26:14.777Z,99.90
2018-08-20T21:28:48.012Z,99.90
2018-08-20T21:31:17.440Z,99.90
2018-08-20T21:33:46.208Z,99.90
2018-08-20T21:36:15.099Z,99.90
2018-08-20T21:38:43.818Z,99.90
2018-08-20T21:41:12.106Z,99.90
2018-08-20T21:43:45.107Z,99.90
2018-08-20T21:46:13.756Z,99.90
2018-08-20T21:48:42.557Z,99.90
2018-08-20T21:51:29.207Z,99.90
2018-08-20T21:53:57.838Z,99.90
2018-08-20T21:57:01.308Z,99.90
2018-08-20T21:59:29.704Z,99.90
2018-08-20T22:01:57.990Z,99.90
2018-08-20T22:04:26.530Z,99.90
2018-08-20T22:06:54.848Z,99.90
2018-08-20T22:09:23.153Z,99.90
2018-08-20T22:11:54.433Z,99.90
2018-08-20T22:14:22.787Z,99.90
2018-08-20T22:16:51.079Z,99.90
2018-08-20T22:19:19.378Z,99.90
2018-08-20T22:21:47.669Z,99.90
2018-08-20T22:24:16.066Z,99.90
2018-08-20T22:26:50.547Z,99.90
2018-08-20T22:29:19.203Z,99.90
2018-08-20T22:32:01.839Z,99.90
2018-08-20T22:34:30.110Z,99.90
2018-08-20T22:37:04.634Z,99.90
2018-08-20T22:39:32.925Z,99.90
2018-08-20T22:42:01.216Z,99.90
2018-08-20T22:44:29.507Z,99.90
2018-08-20T22:46:57.780Z,99.90
2018-08-20T22:49:26.066Z,99.90
2018-08-20T22:51:54.340Z,99.90
2018-08-20T22:54:22.641Z,99.90
2018-08-20T22:56:50.938Z,99.90
2018-08-20T22:59:19.232Z,99.90
2018-08-20T23:01:47.531Z,99.90
2018-08-20T23:04:15.816Z,99.90
2018-08-20T23:06:44.105Z,99.90
2018-08-20T23:09:25.511Z,99.90
2018-08-20T23:11:54.220Z,99.90
2018-08-20T23:14:22.569Z,99.90
2018-08-20T23:16:51.675Z,99.90
2018-08-20T23:19:19.972Z,99.90
2018-08-20T23:21:48.993Z,99.90
2018-08-20T23:24:17.877Z,99.90
2018-08-20T23:26:46.163Z,99.90
2018-08-20T23:29:14.417Z,99.90
2018-08-20T23:31:42.699Z,99.90
2018-08-20T23:34:13.699Z,99.90
2018-08-20T23:36:42.453Z,99.90
2018-08-20T23:39:13.807Z,99.90
2018-08-20T23:41:42.099Z,99.90
2018-08-20T23:44:10.583Z,99.90
2018-08-20T23:46:44.879Z,99.90
2018-08-20T23:49:13.180Z,99.90
2018-08-20T23:51:41.499Z,99.90
2018-08-20T23:54:10.791Z,99.90
2018-08-20T23:56:39.124Z,99.90
2018-08-20T23:59:07.496Z,99.90
